sensor_id;sensor_type;location;lat;lon;timestamp;P1;durP1;ratioP1;P2;durP2;ratioP2
35745;SDS011;21870;42.812;74.628;2023-01-28T00:00:46;25.88;;;12.38;;
35745;SDS011;21870;42.812;74.628;2023-01-28T00:03:12;20.60;;;12.60;;
35745;SDS011;21870;42.812;74.628;2023-01-28T00:05:40;19.00;;;11.95;;
35745;SDS011;21870;42.812;74.628;2023-01-28T00:08:06;20.60;;;12.05;;
35745;SDS011;21870;42.812;74.628;2023-01-28T00:10:32;24.33;;;13.27;;
35745;SDS011;21870;42.812;74.628;2023-01-28T00:12:58;23.92;;;12.95;;
35745;SDS011;21870;42.812;74.628;2023-01-28T00:15:24;21.30;;;12.85;;
35745;SDS011;21870;42.812;74.628;2023-01-28T00:17:50;21.00;;;12.88;;
35745;SDS011;21870;42.812;74.628;2023-01-28T00:20:17;24.23;;;16.90;;
35745;SDS011;21870;42.812;74.628;2023-01-28T00:22:46;21.83;;;15.10;;
35745;SDS011;21870;42.812;74.628;2023-01-28T00:25:13;20.42;;;13.25;;
35745;SDS011;21870;42.812;74.628;2023-01-28T00:27:40;29.13;;;15.23;;
35745;SDS011;21870;42.812;74.628;2023-01-28T00:30:06;31.08;;;18.58;;
35745;SDS011;21870;42.812;74.628;2023-01-28T00:32:33;26.70;;;15.43;;
35745;SDS011;21870;42.812;74.628;2023-01-28T00:34:59;9.20;;;7.25;;
35745;SDS011;21870;42.812;74.628;2023-01-28T00:37:25;9.30;;;6.45;;
35745;SDS011;21870;42.812;74.628;2023-01-28T00:39:51;11.13;;;7.38;;
35745;SDS011;21870;42.812;74.628;2023-01-28T00:42:17;14.35;;;10.73;;
35745;SDS011;21870;42.812;74.628;2023-01-28T00:44:43;13.85;;;10.48;;
35745;SDS011;21870;42.812;74.628;2023-01-28T00:47:09;5.25;;;4.75;;
35745;SDS011;21870;42.812;74.628;2023-01-28T00:49:35;5.20;;;4.70;;
35745;SDS011;21870;42.812;74.628;2023-01-28T00:52:01;9.93;;;7.03;;
35745;SDS011;21870;42.812;74.628;2023-01-28T00:54:28;11.20;;;7.80;;
35745;SDS011;21870;42.812;74.628;2023-01-28T00:56:57;11.82;;;8.60;;
35745;SDS011;21870;42.812;74.628;2023-01-28T00:59:23;10.90;;;9.75;;
35745;SDS011;21870;42.812;74.628;2023-01-28T01:01:49;7.20;;;5.72;;
35745;SDS011;21870;42.812;74.628;2023-01-28T01:04:15;57.65;;;40.22;;
35745;SDS011;21870;42.812;74.628;2023-01-28T01:06:50;11.20;;;8.98;;
35745;SDS011;21870;42.812;74.628;2023-01-28T01:09:17;23.02;;;14.93;;
35745;SDS011;21870;42.812;74.628;2023-01-28T01:11:43;27.83;;;17.77;;
35745;SDS011;21870;42.812;74.628;2023-01-28T01:14:11;9.25;;;5.30;;
35745;SDS011;21870;42.812;74.628;2023-01-28T01:16:37;101.43;;;11.75;;
35745;SDS011;21870;42.812;74.628;2023-01-28T01:19:03;5.43;;;4.55;;
35745;SDS011;21870;42.812;74.628;2023-01-28T01:21:30;5.13;;;4.65;;
35745;SDS011;21870;42.812;74.628;2023-01-28T01:23:56;225.57;;;24.27;;
35745;SDS011;21870;42.812;74.628;2023-01-28T01:26:22;7.55;;;5.97;;
35745;SDS011;21870;42.812;74.628;2023-01-28T01:28:51;13.73;;;11.23;;
35745;SDS011;21870;42.812;74.628;2023-01-28T01:31:18;20.35;;;14.00;;
35745;SDS011;21870;42.812;74.628;2023-01-28T01:33:46;16.88;;;12.82;;
35745;SDS011;21870;42.812;74.628;2023-01-28T01:36:14;13.75;;;11.07;;
35745;SDS011;21870;42.812;74.628;2023-01-28T01:38:42;30.65;;;19.10;;
35745;SDS011;21870;42.812;74.628;2023-01-28T01:41:08;8.15;;;6.57;;
35745;SDS011;21870;42.812;74.628;2023-01-28T01:47:06;10.00;;;6.32;;
35745;SDS011;21870;42.812;74.628;2023-01-28T01:49:25;16.30;;;13.20;;
35745;SDS011;21870;42.812;74.628;2023-01-28T01:51:53;14.25;;;11.45;;
35745;SDS011;21870;42.812;74.628;2023-01-28T01:54:31;27.48;;;23.98;;
35745;SDS011;21870;42.812;74.628;2023-01-28T01:56:58;15.98;;;13.23;;
35745;SDS011;21870;42.812;74.628;2023-01-28T01:59:27;10.65;;;9.05;;
35745;SDS011;21870;42.812;74.628;2023-01-28T02:01:57;7.70;;;6.35;;
35745;SDS011;21870;42.812;74.628;2023-01-28T02:04:31;9.13;;;8.10;;
35745;SDS011;21870;42.812;74.628;2023-01-28T02:07:04;19.52;;;15.90;;
35745;SDS011;21870;42.812;74.628;2023-01-28T02:09:33;35.92;;;32.70;;
35745;SDS011;21870;42.812;74.628;2023-01-28T02:14:36;14.55;;;11.32;;
35745;SDS011;21870;42.812;74.628;2023-01-28T02:17:08;13.35;;;10.00;;
35745;SDS011;21870;42.812;74.628;2023-01-28T02:25:19;7.60;;;6.80;;
35745;SDS011;21870;42.812;74.628;2023-01-28T02:28:12;7.03;;;6.03;;
35745;SDS011;21870;42.812;74.628;2023-01-28T02:33:28;8.85;;;7.43;;
35745;SDS011;21870;42.812;74.628;2023-01-28T02:35:55;6.47;;;5.78;;
35745;SDS011;21870;42.812;74.628;2023-01-28T02:38:27;14.00;;;12.45;;
35745;SDS011;21870;42.812;74.628;2023-01-28T02:41:03;6.18;;;5.53;;
35745;SDS011;21870;42.812;74.628;2023-01-28T02:43:41;12.63;;;11.40;;
35745;SDS011;21870;42.812;74.628;2023-01-28T02:49:10;26.70;;;17.60;;
35745;SDS011;21870;42.812;74.628;2023-01-28T02:59:46;9.20;;;7.47;;
35745;SDS011;21870;42.812;74.628;2023-01-28T03:05:15;14.00;;;10.63;;
35745;SDS011;21870;42.812;74.628;2023-01-28T03:07:46;32.13;;;23.15;;
35745;SDS011;21870;42.812;74.628;2023-01-28T03:10:15;23.65;;;17.00;;
35745;SDS011;21870;42.812;74.628;2023-01-28T03:12:44;12.65;;;8.77;;
35745;SDS011;21870;42.812;74.628;2023-01-28T03:15:36;12.27;;;8.80;;
35745;SDS011;21870;42.812;74.628;2023-01-28T03:18:30;11.75;;;7.05;;
35745;SDS011;21870;42.812;74.628;2023-01-28T03:21:33;11.40;;;8.15;;
35745;SDS011;21870;42.812;74.628;2023-01-28T03:27:18;56.20;;;33.80;;
35745;SDS011;21870;42.812;74.628;2023-01-28T03:30:13;50.63;;;35.78;;
35745;SDS011;21870;42.812;74.628;2023-01-28T03:33:18;49.47;;;33.47;;
35745;SDS011;21870;42.812;74.628;2023-01-28T03:36:03;40.78;;;28.38;;
35745;SDS011;21870;42.812;74.628;2023-01-28T03:38:51;34.65;;;24.85;;
35745;SDS011;21870;42.812;74.628;2023-01-28T03:41:21;54.22;;;25.65;;
35745;SDS011;21870;42.812;74.628;2023-01-28T03:43:48;60.20;;;29.92;;
35745;SDS011;21870;42.812;74.628;2023-01-28T03:46:15;46.42;;;31.02;;
35745;SDS011;21870;42.812;74.628;2023-01-28T03:48:42;38.42;;;27.73;;
35745;SDS011;21870;42.812;74.628;2023-01-28T03:51:09;36.40;;;24.27;;
35745;SDS011;21870;42.812;74.628;2023-01-28T03:53:36;42.30;;;24.88;;
35745;SDS011;21870;42.812;74.628;2023-01-28T03:56:03;33.58;;;22.15;;
35745;SDS011;21870;42.812;74.628;2023-01-28T03:58:29;41.05;;;24.67;;
35745;SDS011;21870;42.812;74.628;2023-01-28T04:01:10;44.83;;;24.80;;
35745;SDS011;21870;42.812;74.628;2023-01-28T04:03:37;38.80;;;24.58;;
35745;SDS011;21870;42.812;74.628;2023-01-28T04:06:04;38.00;;;21.88;;
35745;SDS011;21870;42.812;74.628;2023-01-28T04:08:32;37.80;;;24.90;;
35745;SDS011;21870;42.812;74.628;2023-01-28T04:10:58;26.67;;;19.15;;
35745;SDS011;21870;42.812;74.628;2023-01-28T04:13:42;23.80;;;15.77;;
35745;SDS011;21870;42.812;74.628;2023-01-28T04:16:09;22.55;;;17.20;;
35745;SDS011;21870;42.812;74.628;2023-01-28T04:18:36;23.83;;;17.40;;
35745;SDS011;21870;42.812;74.628;2023-01-28T04:21:03;26.60;;;17.98;;
35745;SDS011;21870;42.812;74.628;2023-01-28T04:23:29;26.08;;;18.38;;
35745;SDS011;21870;42.812;74.628;2023-01-28T04:25:55;27.75;;;20.38;;
35745;SDS011;21870;42.812;74.628;2023-01-28T04:28:21;23.05;;;18.35;;
35745;SDS011;21870;42.812;74.628;2023-01-28T04:30:48;26.42;;;18.42;;
35745;SDS011;21870;42.812;74.628;2023-01-28T04:33:14;23.00;;;16.27;;
35745;SDS011;21870;42.812;74.628;2023-01-28T04:35:40;22.17;;;18.17;;
35745;SDS011;21870;42.812;74.628;2023-01-28T04:38:06;30.80;;;22.90;;
35745;SDS011;21870;42.812;74.628;2023-01-28T04:40:33;31.77;;;21.17;;
35745;SDS011;21870;42.812;74.628;2023-01-28T04:42:59;17.38;;;13.65;;
35745;SDS011;21870;42.812;74.628;2023-01-28T04:45:25;12.25;;;8.95;;
35745;SDS011;21870;42.812;74.628;2023-01-28T04:47:51;25.05;;;16.67;;
35745;SDS011;21870;42.812;74.628;2023-01-28T04:50:17;14.45;;;11.23;;
35745;SDS011;21870;42.812;74.628;2023-01-28T04:52:43;8.70;;;7.15;;
35745;SDS011;21870;42.812;74.628;2023-01-28T04:55:09;11.25;;;8.93;;
35745;SDS011;21870;42.812;74.628;2023-01-28T04:57:35;17.23;;;8.85;;
35745;SDS011;21870;42.812;74.628;2023-01-28T05:00:03;23.98;;;14.68;;
35745;SDS011;21870;42.812;74.628;2023-01-28T05:02:30;12.50;;;9.80;;
35745;SDS011;21870;42.812;74.628;2023-01-28T05:04:56;12.02;;;9.02;;
35745;SDS011;21870;42.812;74.628;2023-01-28T05:07:22;12.45;;;8.55;;
35745;SDS011;21870;42.812;74.628;2023-01-28T05:09:48;11.38;;;8.18;;
35745;SDS011;21870;42.812;74.628;2023-01-28T05:12:14;10.95;;;8.48;;
35745;SDS011;21870;42.812;74.628;2023-01-28T05:14:40;19.77;;;13.95;;
35745;SDS011;21870;42.812;74.628;2023-01-28T05:17:06;11.10;;;9.65;;
35745;SDS011;21870;42.812;74.628;2023-01-28T05:19:33;11.30;;;8.95;;
35745;SDS011;21870;42.812;74.628;2023-01-28T05:21:59;13.98;;;9.32;;
35745;SDS011;21870;42.812;74.628;2023-01-28T05:24:25;14.80;;;11.55;;
35745;SDS011;21870;42.812;74.628;2023-01-28T05:26:51;18.10;;;12.73;;
35745;SDS011;21870;42.812;74.628;2023-01-28T05:29:17;20.70;;;15.40;;
35745;SDS011;21870;42.812;74.628;2023-01-28T05:31:43;18.90;;;15.80;;
35745;SDS011;21870;42.812;74.628;2023-01-28T05:34:11;21.77;;;15.85;;
35745;SDS011;21870;42.812;74.628;2023-01-28T05:36:37;20.92;;;16.35;;
35745;SDS011;21870;42.812;74.628;2023-01-28T05:39:05;30.38;;;19.75;;
35745;SDS011;21870;42.812;74.628;2023-01-28T05:41:32;28.50;;;20.52;;
35745;SDS011;21870;42.812;74.628;2023-01-28T05:43:59;30.63;;;21.55;;
35745;SDS011;21870;42.812;74.628;2023-01-28T05:46:25;37.15;;;23.00;;
35745;SDS011;21870;42.812;74.628;2023-01-28T05:48:51;36.95;;;27.95;;
35745;SDS011;21870;42.812;74.628;2023-01-28T05:51:17;46.85;;;28.55;;
35745;SDS011;21870;42.812;74.628;2023-01-28T05:53:43;52.00;;;34.50;;
35745;SDS011;21870;42.812;74.628;2023-01-28T05:56:09;72.68;;;46.45;;
35745;SDS011;21870;42.812;74.628;2023-01-28T05:58:35;83.90;;;58.30;;
35745;SDS011;21870;42.812;74.628;2023-01-28T06:01:01;84.63;;;55.63;;
35745;SDS011;21870;42.812;74.628;2023-01-28T06:03:28;83.82;;;59.05;;
35745;SDS011;21870;42.812;74.628;2023-01-28T06:05:54;83.95;;;53.33;;
35745;SDS011;21870;42.812;74.628;2023-01-28T06:08:20;81.47;;;59.88;;
35745;SDS011;21870;42.812;74.628;2023-01-28T06:10:46;82.00;;;56.22;;
35745;SDS011;21870;42.812;74.628;2023-01-28T06:13:12;87.70;;;54.17;;
35745;SDS011;21870;42.812;74.628;2023-01-28T06:15:38;79.65;;;56.58;;
35745;SDS011;21870;42.812;74.628;2023-01-28T06:18:04;57.03;;;42.17;;
35745;SDS011;21870;42.812;74.628;2023-01-28T06:20:31;64.70;;;41.25;;
35745;SDS011;21870;42.812;74.628;2023-01-28T06:22:57;59.97;;;42.22;;
35745;SDS011;21870;42.812;74.628;2023-01-28T06:25:23;86.18;;;58.95;;
35745;SDS011;21870;42.812;74.628;2023-01-28T06:27:49;72.35;;;47.20;;
35745;SDS011;21870;42.812;74.628;2023-01-28T06:30:15;69.22;;;48.92;;
35745;SDS011;21870;42.812;74.628;2023-01-28T06:32:41;82.90;;;58.15;;
35745;SDS011;21870;42.812;74.628;2023-01-28T06:35:08;71.20;;;50.22;;
35745;SDS011;21870;42.812;74.628;2023-01-28T06:37:35;69.60;;;51.17;;
35745;SDS011;21870;42.812;74.628;2023-01-28T06:40:02;80.28;;;55.50;;
35745;SDS011;21870;42.812;74.628;2023-01-28T06:42:28;72.22;;;54.03;;
35745;SDS011;21870;42.812;74.628;2023-01-28T06:44:54;80.93;;;58.33;;
35745;SDS011;21870;42.812;74.628;2023-01-28T06:47:20;88.72;;;60.28;;
35745;SDS011;21870;42.812;74.628;2023-01-28T06:49:46;84.28;;;62.97;;
35745;SDS011;21870;42.812;74.628;2023-01-28T06:52:12;103.40;;;69.85;;
35745;SDS011;21870;42.812;74.628;2023-01-28T06:54:38;88.28;;;65.85;;
35745;SDS011;21870;42.812;74.628;2023-01-28T06:57:04;100.32;;;73.45;;
35745;SDS011;21870;42.812;74.628;2023-01-28T06:59:31;103.13;;;75.47;;
35745;SDS011;21870;42.812;74.628;2023-01-28T07:01:57;110.50;;;87.80;;
35745;SDS011;21870;42.812;74.628;2023-01-28T07:04:23;128.50;;;79.90;;
35745;SDS011;21870;42.812;74.628;2023-01-28T07:06:49;105.88;;;81.85;;
35745;SDS011;21870;42.812;74.628;2023-01-28T07:09:15;108.03;;;81.82;;
35745;SDS011;21870;42.812;74.628;2023-01-28T07:11:41;108.75;;;79.22;;
35745;SDS011;21870;42.812;74.628;2023-01-28T07:14:07;105.82;;;78.47;;
35745;SDS011;21870;42.812;74.628;2023-01-28T07:16:33;113.35;;;79.88;;
35745;SDS011;21870;42.812;74.628;2023-01-28T07:18:59;111.78;;;84.32;;
35745;SDS011;21870;42.812;74.628;2023-01-28T07:21:25;113.07;;;84.82;;
35745;SDS011;21870;42.812;74.628;2023-01-28T07:23:51;114.70;;;87.60;;
35745;SDS011;21870;42.812;74.628;2023-01-28T07:26:17;119.45;;;88.03;;
35745;SDS011;21870;42.812;74.628;2023-01-28T07:28:44;115.22;;;87.13;;
35745;SDS011;21870;42.812;74.628;2023-01-28T07:31:10;110.07;;;85.50;;
35745;SDS011;21870;42.812;74.628;2023-01-28T07:33:36;120.43;;;91.43;;
35745;SDS011;21870;42.812;74.628;2023-01-28T07:36:02;114.20;;;86.70;;
35745;SDS011;21870;42.812;74.628;2023-01-28T07:38:29;114.72;;;90.82;;
35745;SDS011;21870;42.812;74.628;2023-01-28T07:40:55;118.95;;;89.88;;
35745;SDS011;21870;42.812;74.628;2023-01-28T07:43:21;115.47;;;91.30;;
35745;SDS011;21870;42.812;74.628;2023-01-28T07:45:47;116.45;;;90.63;;
35745;SDS011;21870;42.812;74.628;2023-01-28T07:48:13;127.68;;;90.03;;
35745;SDS011;21870;42.812;74.628;2023-01-28T07:50:39;126.07;;;92.20;;
35745;SDS011;21870;42.812;74.628;2023-01-28T07:53:07;118.28;;;95.35;;
35745;SDS011;21870;42.812;74.628;2023-01-28T07:55:35;119.18;;;94.03;;
35745;SDS011;21870;42.812;74.628;2023-01-28T07:58:03;122.63;;;88.75;;
35745;SDS011;21870;42.812;74.628;2023-01-28T08:00:31;126.05;;;97.85;;
35745;SDS011;21870;42.812;74.628;2023-01-28T08:02:59;154.00;;;122.45;;
35745;SDS011;21870;42.812;74.628;2023-01-28T08:05:39;154.38;;;118.00;;
35745;SDS011;21870;42.812;74.628;2023-01-28T08:08:08;171.98;;;127.43;;
35745;SDS011;21870;42.812;74.628;2023-01-28T08:10:34;161.45;;;128.60;;
35745;SDS011;21870;42.812;74.628;2023-01-28T08:13:02;162.60;;;129.40;;
35745;SDS011;21870;42.812;74.628;2023-01-28T08:15:28;165.30;;;129.65;;
35745;SDS011;21870;42.812;74.628;2023-01-28T08:17:55;163.50;;;127.43;;
35745;SDS011;21870;42.812;74.628;2023-01-28T08:20:24;156.43;;;126.97;;
35745;SDS011;21870;42.812;74.628;2023-01-28T08:22:52;163.68;;;133.32;;
35745;SDS011;21870;42.812;74.628;2023-01-28T08:25:18;161.68;;;130.90;;
35745;SDS011;21870;42.812;74.628;2023-01-28T08:27:44;161.55;;;133.40;;
35745;SDS011;21870;42.812;74.628;2023-01-28T08:30:10;171.52;;;136.68;;
35745;SDS011;21870;42.812;74.628;2023-01-28T08:32:37;170.35;;;139.90;;
35745;SDS011;21870;42.812;74.628;2023-01-28T08:35:03;174.98;;;134.52;;
35745;SDS011;21870;42.812;74.628;2023-01-28T08:37:31;150.15;;;128.93;;
35745;SDS011;21870;42.812;74.628;2023-01-28T08:39:57;134.15;;;107.13;;
35745;SDS011;21870;42.812;74.628;2023-01-28T08:42:23;130.80;;;105.18;;
35745;SDS011;21870;42.812;74.628;2023-01-28T08:44:52;121.53;;;98.25;;
35745;SDS011;21870;42.812;74.628;2023-01-28T08:47:18;82.80;;;67.43;;
35745;SDS011;21870;42.812;74.628;2023-01-28T08:49:44;69.03;;;56.53;;
35745;SDS011;21870;42.812;74.628;2023-01-28T08:52:10;57.40;;;48.75;;
35745;SDS011;21870;42.812;74.628;2023-01-28T08:54:37;56.42;;;42.88;;
35745;SDS011;21870;42.812;74.628;2023-01-28T08:57:03;43.83;;;34.63;;
35745;SDS011;21870;42.812;74.628;2023-01-28T08:59:29;35.78;;;29.30;;
35745;SDS011;21870;42.812;74.628;2023-01-28T09:01:55;30.33;;;25.45;;
35745;SDS011;21870;42.812;74.628;2023-01-28T09:04:21;36.00;;;28.48;;
35745;SDS011;21870;42.812;74.628;2023-01-28T09:06:47;40.78;;;28.80;;
35745;SDS011;21870;42.812;74.628;2023-01-28T09:09:13;38.08;;;30.80;;
35745;SDS011;21870;42.812;74.628;2023-01-28T09:11:39;36.72;;;30.10;;
35745;SDS011;21870;42.812;74.628;2023-01-28T09:14:06;38.60;;;32.22;;
35745;SDS011;21870;42.812;74.628;2023-01-28T09:16:32;45.80;;;35.85;;
35745;SDS011;21870;42.812;74.628;2023-01-28T09:18:58;46.53;;;39.72;;
35745;SDS011;21870;42.812;74.628;2023-01-28T09:21:24;54.13;;;41.35;;
35745;SDS011;21870;42.812;74.628;2023-01-28T09:23:50;53.78;;;42.75;;
35745;SDS011;21870;42.812;74.628;2023-01-28T09:26:19;56.88;;;46.30;;
35745;SDS011;21870;42.812;74.628;2023-01-28T09:28:46;77.90;;;55.75;;
35745;SDS011;21870;42.812;74.628;2023-01-28T09:31:12;69.95;;;53.45;;
35745;SDS011;21870;42.812;74.628;2023-01-28T09:33:41;57.15;;;43.80;;
35745;SDS011;21870;42.812;74.628;2023-01-28T09:36:07;54.25;;;43.40;;
35745;SDS011;21870;42.812;74.628;2023-01-28T09:38:35;50.47;;;36.53;;
35745;SDS011;21870;42.812;74.628;2023-01-28T09:41:02;43.80;;;35.58;;
35745;SDS011;21870;42.812;74.628;2023-01-28T09:44:02;42.40;;;31.15;;
35745;SDS011;21870;42.812;74.628;2023-01-28T09:46:38;36.58;;;29.38;;
35745;SDS011;21870;42.812;74.628;2023-01-28T09:49:52;33.03;;;25.67;;
35745;SDS011;21870;42.812;74.628;2023-01-28T09:52:07;34.03;;;25.40;;
35745;SDS011;21870;42.812;74.628;2023-01-28T09:54:41;30.23;;;23.50;;
35745;SDS011;21870;42.812;74.628;2023-01-28T09:57:12;30.02;;;24.05;;
35745;SDS011;21870;42.812;74.628;2023-01-28T09:59:44;30.67;;;24.35;;
35745;SDS011;21870;42.812;74.628;2023-01-28T10:13:48;43.63;;;34.60;;
35745;SDS011;21870;42.812;74.628;2023-01-28T10:16:45;50.00;;;38.20;;
35745;SDS011;21870;42.812;74.628;2023-01-28T10:21:59;53.58;;;38.92;;
35745;SDS011;21870;42.812;74.628;2023-01-28T10:24:30;50.35;;;38.83;;
35745;SDS011;21870;42.812;74.628;2023-01-28T10:26:58;48.67;;;37.25;;
35745;SDS011;21870;42.812;74.628;2023-01-28T10:29:29;43.45;;;35.88;;
35745;SDS011;21870;42.812;74.628;2023-01-28T10:32:05;46.78;;;35.03;;
35745;SDS011;21870;42.812;74.628;2023-01-28T10:34:46;39.22;;;29.25;;
35745;SDS011;21870;42.812;74.628;2023-01-28T10:37:12;36.83;;;28.95;;
35745;SDS011;21870;42.812;74.628;2023-01-28T10:39:39;37.20;;;28.10;;
35745;SDS011;21870;42.812;74.628;2023-01-28T10:42:48;44.47;;;32.28;;
35745;SDS011;21870;42.812;74.628;2023-01-28T10:44:58;43.50;;;33.53;;
35745;SDS011;21870;42.812;74.628;2023-01-28T10:50:33;41.63;;;34.58;;
35745;SDS011;21870;42.812;74.628;2023-01-28T10:53:01;41.03;;;35.17;;
35745;SDS011;21870;42.812;74.628;2023-01-28T10:55:29;48.25;;;34.65;;
35745;SDS011;21870;42.812;74.628;2023-01-28T10:57:58;50.40;;;35.63;;
35745;SDS011;21870;42.812;74.628;2023-01-28T11:00:27;41.85;;;33.85;;
35745;SDS011;21870;42.812;74.628;2023-01-28T11:02:59;41.53;;;34.63;;
35745;SDS011;21870;42.812;74.628;2023-01-28T11:05:26;46.40;;;35.28;;
35745;SDS011;21870;42.812;74.628;2023-01-28T11:10:31;49.22;;;38.63;;
35745;SDS011;21870;42.812;74.628;2023-01-28T11:13:04;45.78;;;37.15;;
35745;SDS011;21870;42.812;74.628;2023-01-28T11:15:31;54.92;;;38.05;;
35745;SDS011;21870;42.812;74.628;2023-01-28T11:17:59;47.30;;;36.95;;
35745;SDS011;21870;42.812;74.628;2023-01-28T11:20:29;47.13;;;36.63;;
35745;SDS011;21870;42.812;74.628;2023-01-28T11:22:59;46.85;;;37.53;;
35745;SDS011;21870;42.812;74.628;2023-01-28T11:25:30;48.90;;;37.33;;
35745;SDS011;21870;42.812;74.628;2023-01-28T11:27:58;45.65;;;37.88;;
35745;SDS011;21870;42.812;74.628;2023-01-28T11:30:31;51.17;;;39.30;;
35745;SDS011;21870;42.812;74.628;2023-01-28T11:33:11;44.85;;;38.15;;
35745;SDS011;21870;42.812;74.628;2023-01-28T11:35:40;52.15;;;37.97;;
35745;SDS011;21870;42.812;74.628;2023-01-28T11:38:17;48.90;;;38.95;;
35745;SDS011;21870;42.812;74.628;2023-01-28T11:40:49;51.60;;;38.50;;
35745;SDS011;21870;42.812;74.628;2023-01-28T11:43:21;51.30;;;38.00;;
35745;SDS011;21870;42.812;74.628;2023-01-28T11:45:55;47.00;;;37.75;;
35745;SDS011;21870;42.812;74.628;2023-01-28T11:51:35;57.55;;;38.38;;
35745;SDS011;21870;42.812;74.628;2023-01-28T11:54:31;54.40;;;40.65;;
35745;SDS011;21870;42.812;74.628;2023-01-28T11:59:53;66.40;;;39.85;;
35745;SDS011;21870;42.812;74.628;2023-01-28T12:11:12;42.63;;;31.05;;
35745;SDS011;21870;42.812;74.628;2023-01-28T12:17:29;45.67;;;33.00;;
35745;SDS011;21870;42.812;74.628;2023-01-28T12:20:15;46.83;;;33.25;;
35745;SDS011;21870;42.812;74.628;2023-01-28T12:45:16;41.35;;;27.40;;
35745;SDS011;21870;42.812;74.628;2023-01-28T12:47:58;47.75;;;31.35;;
35745;SDS011;21870;42.812;74.628;2023-01-28T12:50:38;44.55;;;31.88;;
35745;SDS011;21870;42.812;74.628;2023-01-28T12:59:09;49.83;;;32.00;;
35745;SDS011;21870;42.812;74.628;2023-01-28T13:01:42;49.63;;;34.30;;
35745;SDS011;21870;42.812;74.628;2023-01-28T13:06:57;66.35;;;45.10;;
35745;SDS011;21870;42.812;74.628;2023-01-28T13:09:35;65.65;;;47.47;;
35745;SDS011;21870;42.812;74.628;2023-01-28T13:12:03;44.35;;;33.72;;
35745;SDS011;21870;42.812;74.628;2023-01-28T13:14:31;56.75;;;41.30;;
35745;SDS011;21870;42.812;74.628;2023-01-28T13:17:10;59.22;;;40.20;;
35745;SDS011;21870;42.812;74.628;2023-01-28T13:19:38;118.38;;;81.68;;
35745;SDS011;21870;42.812;74.628;2023-01-28T13:22:10;104.30;;;73.07;;
35745;SDS011;21870;42.812;74.628;2023-01-28T13:25:10;126.25;;;85.40;;
35745;SDS011;21870;42.812;74.628;2023-01-28T13:27:52;184.95;;;121.57;;
35745;SDS011;21870;42.812;74.628;2023-01-28T13:30:24;224.80;;;143.77;;
35745;SDS011;21870;42.812;74.628;2023-01-28T13:32:56;219.52;;;132.05;;
35745;SDS011;21870;42.812;74.628;2023-01-28T13:35:32;188.95;;;119.95;;
35745;SDS011;21870;42.812;74.628;2023-01-28T13:38:12;199.75;;;133.88;;
35745;SDS011;21870;42.812;74.628;2023-01-28T13:40:52;234.60;;;151.63;;
35745;SDS011;21870;42.812;74.628;2023-01-28T13:43:26;287.27;;;200.95;;
35745;SDS011;21870;42.812;74.628;2023-01-28T13:46:09;257.45;;;174.93;;
35745;SDS011;21870;42.812;74.628;2023-01-28T13:48:42;238.85;;;163.38;;
35745;SDS011;21870;42.812;74.628;2023-01-28T13:51:21;202.45;;;137.90;;
35745;SDS011;21870;42.812;74.628;2023-01-28T13:53:57;169.85;;;117.15;;
35745;SDS011;21870;42.812;74.628;2023-01-28T14:18:25;114.55;;;77.35;;
35745;SDS011;21870;42.812;74.628;2023-01-28T14:21:18;122.55;;;77.60;;
35745;SDS011;21870;42.812;74.628;2023-01-28T14:23:55;105.55;;;72.75;;
35745;SDS011;21870;42.812;74.628;2023-01-28T14:31:29;121.10;;;83.13;;
35745;SDS011;21870;42.812;74.628;2023-01-28T14:36:41;106.28;;;74.95;;
35745;SDS011;21870;42.812;74.628;2023-01-28T14:39:23;69.10;;;49.53;;
35745;SDS011;21870;42.812;74.628;2023-01-28T14:41:52;76.07;;;52.72;;
35745;SDS011;21870;42.812;74.628;2023-01-28T14:44:40;104.53;;;69.28;;
35745;SDS011;21870;42.812;74.628;2023-01-28T14:58:23;146.10;;;96.85;;
35745;SDS011;21870;42.812;74.628;2023-01-28T15:00:57;192.35;;;119.47;;
35745;SDS011;21870;42.812;74.628;2023-01-28T15:03:24;105.05;;;68.43;;
35745;SDS011;21870;42.812;74.628;2023-01-28T15:06:01;142.38;;;96.80;;
35745;SDS011;21870;42.812;74.628;2023-01-28T15:08:28;134.68;;;88.22;;
35745;SDS011;21870;42.812;74.628;2023-01-28T15:10:56;182.82;;;115.80;;
35745;SDS011;21870;42.812;74.628;2023-01-28T15:13:24;320.35;;;229.32;;
35745;SDS011;21870;42.812;74.628;2023-01-28T15:15:53;145.10;;;104.45;;
35745;SDS011;21870;42.812;74.628;2023-01-28T15:21:11;87.20;;;61.78;;
35745;SDS011;21870;42.812;74.628;2023-01-28T15:23:41;103.57;;;72.03;;
35745;SDS011;21870;42.812;74.628;2023-01-28T15:26:18;86.05;;;56.78;;
35745;SDS011;21870;42.812;74.628;2023-01-28T15:28:46;84.88;;;57.58;;
35745;SDS011;21870;42.812;74.628;2023-01-28T15:31:21;88.05;;;56.47;;
35745;SDS011;21870;42.812;74.628;2023-01-28T15:33:57;77.85;;;52.35;;
35745;SDS011;21870;42.812;74.628;2023-01-28T15:36:23;61.67;;;38.30;;
35745;SDS011;21870;42.812;74.628;2023-01-28T15:38:50;98.30;;;66.78;;
35745;SDS011;21870;42.812;74.628;2023-01-28T15:41:17;77.32;;;49.83;;
35745;SDS011;21870;42.812;74.628;2023-01-28T15:43:47;48.88;;;34.78;;
35745;SDS011;21870;42.812;74.628;2023-01-28T15:46:15;45.00;;;32.42;;
35745;SDS011;21870;42.812;74.628;2023-01-28T15:48:46;49.67;;;32.63;;
35745;SDS011;21870;42.812;74.628;2023-01-28T15:51:24;50.83;;;32.28;;
35745;SDS011;21870;42.812;74.628;2023-01-28T15:53:55;69.75;;;42.10;;
35745;SDS011;21870;42.812;74.628;2023-01-28T15:56:29;52.72;;;36.33;;
35745;SDS011;21870;42.812;74.628;2023-01-28T15:59:06;75.32;;;47.42;;
35745;SDS011;21870;42.812;74.628;2023-01-28T16:01:43;52.67;;;33.72;;
35745;SDS011;21870;42.812;74.628;2023-01-28T16:04:25;63.38;;;42.58;;
35745;SDS011;21870;42.812;74.628;2023-01-28T16:06:53;76.07;;;43.67;;
35745;SDS011;21870;42.812;74.628;2023-01-28T16:09:24;76.80;;;49.28;;
35745;SDS011;21870;42.812;74.628;2023-01-28T16:12:02;57.15;;;39.45;;
35745;SDS011;21870;42.812;74.628;2023-01-28T16:17:23;50.95;;;32.03;;
35745;SDS011;21870;42.812;74.628;2023-01-28T16:19:56;47.10;;;30.20;;
35745;SDS011;21870;42.812;74.628;2023-01-28T16:25:01;69.30;;;44.72;;
35745;SDS011;21870;42.812;74.628;2023-01-28T16:27:48;44.08;;;28.67;;
35745;SDS011;21870;42.812;74.628;2023-01-28T16:30:17;46.90;;;27.13;;
35745;SDS011;21870;42.812;74.628;2023-01-28T16:32:44;48.25;;;28.45;;
35745;SDS011;21870;42.812;74.628;2023-01-28T16:35:17;70.82;;;47.50;;
35745;SDS011;21870;42.812;74.628;2023-01-28T16:37:46;46.28;;;28.25;;
35745;SDS011;21870;42.812;74.628;2023-01-28T16:40:14;43.40;;;29.33;;
35745;SDS011;21870;42.812;74.628;2023-01-28T16:42:42;43.92;;;27.75;;
35745;SDS011;21870;42.812;74.628;2023-01-28T16:45:24;45.03;;;28.77;;
35745;SDS011;21870;42.812;74.628;2023-01-28T16:47:51;42.88;;;27.80;;
35745;SDS011;21870;42.812;74.628;2023-01-28T16:50:18;89.38;;;56.78;;
35745;SDS011;21870;42.812;74.628;2023-01-28T16:52:46;66.60;;;40.95;;